sensor_id;sensor_type;location;lat;lon;timestamp;P1;durP1;ratioP1;P2;durP2;ratioP2
31906;SDS011;18455;50.858;13.662;2022-12-24T00:04:24;1.73;;;1.30;;
31906;SDS011;18455;50.858;13.662;2022-12-24T00:09:24;4.70;;;1.10;;
31906;SDS011;18455;50.858;13.662;2022-12-24T00:14:24;3.90;;;1.10;;
31906;SDS011;18455;50.858;13.662;2022-12-24T00:19:25;3.10;;;1.13;;
31906;SDS011;18455;50.858;13.662;2022-12-24T00:24:25;4.80;;;1.20;;
31906;SDS011;18455;50.858;13.662;2022-12-24T00:29:25;8.07;;;1.40;;
31906;SDS011;18455;50.858;13.662;2022-12-24T00:34:25;3.40;;;1.40;;
31906;SDS011;18455;50.858;13.662;2022-12-24T00:39:26;5.10;;;1.50;;
31906;SDS011;18455;50.858;13.662;2022-12-24T00:44:26;3.07;;;1.37;;
31906;SDS011;18455;50.858;13.662;2022-12-24T00:49:26;6.57;;;1.60;;
31906;SDS011;18455;50.858;13.662;2022-12-24T00:54:26;4.83;;;1.53;;
31906;SDS011;18455;50.858;13.662;2022-12-24T00:59:26;4.50;;;1.67;;
31906;SDS011;18455;50.858;13.662;2022-12-24T01:04:26;5.97;;;1.97;;
31906;SDS011;18455;50.858;13.662;2022-12-24T01:09:45;5.77;;;1.87;;
31906;SDS011;18455;50.858;13.662;2022-12-24T01:14:45;6.97;;;2.17;;
31906;SDS011;18455;50.858;13.662;2022-12-24T01:19:46;5.87;;;1.73;;
31906;SDS011;18455;50.858;13.662;2022-12-24T01:24:46;4.37;;;1.40;;
31906;SDS011;18455;50.858;13.662;2022-12-24T01:29:46;8.10;;;1.63;;
31906;SDS011;18455;50.858;13.662;2022-12-24T01:34:46;12.13;;;2.20;;
31906;SDS011;18455;50.858;13.662;2022-12-24T01:39:46;6.80;;;1.90;;
31906;SDS011;18455;50.858;13.662;2022-12-24T01:44:47;5.10;;;1.80;;
31906;SDS011;18455;50.858;13.662;2022-12-24T01:49:52;4.30;;;1.77;;
31906;SDS011;18455;50.858;13.662;2022-12-24T01:54:53;3.30;;;1.70;;
31906;SDS011;18455;50.858;13.662;2022-12-24T01:59:56;5.80;;;1.67;;
31906;SDS011;18455;50.858;13.662;2022-12-24T02:05:11;5.93;;;1.47;;
31906;SDS011;18455;50.858;13.662;2022-12-24T02:10:13;7.20;;;1.90;;
31906;SDS011;18455;50.858;13.662;2022-12-24T02:15:15;4.10;;;1.27;;
31906;SDS011;18455;50.858;13.662;2022-12-24T02:30:55;7.57;;;1.50;;
31906;SDS011;18455;50.858;13.662;2022-12-24T02:36:00;6.10;;;1.50;;
31906;SDS011;18455;50.858;13.662;2022-12-24T02:41:08;2.10;;;1.37;;
31906;SDS011;18455;50.858;13.662;2022-12-24T02:46:13;2.50;;;1.20;;
31906;SDS011;18455;50.858;13.662;2022-12-24T02:51:14;3.50;;;1.20;;
31906;SDS011;18455;50.858;13.662;2022-12-24T02:56:18;4.77;;;1.60;;
31906;SDS011;18455;50.858;13.662;2022-12-24T03:01:37;6.70;;;1.43;;
31906;SDS011;18455;50.858;13.662;2022-12-24T03:06:56;5.17;;;1.57;;
31906;SDS011;18455;50.858;13.662;2022-12-24T03:12:06;4.87;;;1.47;;
31906;SDS011;18455;50.858;13.662;2022-12-24T03:17:08;6.33;;;1.80;;
31906;SDS011;18455;50.858;13.662;2022-12-24T03:22:09;4.20;;;1.60;;
31906;SDS011;18455;50.858;13.662;2022-12-24T03:27:10;6.93;;;1.40;;
31906;SDS011;18455;50.858;13.662;2022-12-24T03:32:11;6.20;;;1.47;;
31906;SDS011;18455;50.858;13.662;2022-12-24T03:37:12;3.00;;;1.20;;
31906;SDS011;18455;50.858;13.662;2022-12-24T03:42:12;5.53;;;1.43;;
31906;SDS011;18455;50.858;13.662;2022-12-24T03:47:12;4.43;;;1.80;;
31906;SDS011;18455;50.858;13.662;2022-12-24T03:52:12;5.23;;;1.63;;
31906;SDS011;18455;50.858;13.662;2022-12-24T03:57:12;3.57;;;1.33;;
31906;SDS011;18455;50.858;13.662;2022-12-24T04:02:12;8.13;;;2.03;;
31906;SDS011;18455;50.858;13.662;2022-12-24T04:07:13;6.50;;;1.60;;
31906;SDS011;18455;50.858;13.662;2022-12-24T04:12:13;9.30;;;1.87;;
31906;SDS011;18455;50.858;13.662;2022-12-24T04:17:13;8.40;;;1.67;;
31906;SDS011;18455;50.858;13.662;2022-12-24T04:22:13;8.00;;;1.40;;
31906;SDS011;18455;50.858;13.662;2022-12-24T04:27:14;5.50;;;1.97;;
31906;SDS011;18455;50.858;13.662;2022-12-24T04:32:14;9.33;;;1.77;;
31906;SDS011;18455;50.858;13.662;2022-12-24T04:37:14;10.80;;;1.70;;
31906;SDS011;18455;50.858;13.662;2022-12-24T04:42:14;8.63;;;2.23;;
31906;SDS011;18455;50.858;13.662;2022-12-24T04:47:14;5.20;;;2.20;;
31906;SDS011;18455;50.858;13.662;2022-12-24T04:52:14;9.03;;;2.27;;
31906;SDS011;18455;50.858;13.662;2022-12-24T04:57:15;6.73;;;1.87;;
31906;SDS011;18455;50.858;13.662;2022-12-24T05:02:15;10.80;;;1.87;;
31906;SDS011;18455;50.858;13.662;2022-12-24T05:07:15;9.33;;;1.57;;
31906;SDS011;18455;50.858;13.662;2022-12-24T05:12:15;11.43;;;1.97;;
31906;SDS011;18455;50.858;13.662;2022-12-24T05:17:15;7.87;;;2.47;;
31906;SDS011;18455;50.858;13.662;2022-12-24T05:22:15;5.70;;;1.40;;
31906;SDS011;18455;50.858;13.662;2022-12-24T05:27:34;7.27;;;2.23;;
31906;SDS011;18455;50.858;13.662;2022-12-24T05:32:35;9.27;;;2.07;;
31906;SDS011;18455;50.858;13.662;2022-12-24T05:37:35;12.67;;;2.00;;
31906;SDS011;18455;50.858;13.662;2022-12-24T05:42:35;8.00;;;2.20;;
31906;SDS011;18455;50.858;13.662;2022-12-24T05:47:35;8.73;;;1.83;;
31906;SDS011;18455;50.858;13.662;2022-12-24T05:52:35;13.53;;;2.10;;
31906;SDS011;18455;50.858;13.662;2022-12-24T05:57:36;6.13;;;2.10;;
31906;SDS011;18455;50.858;13.662;2022-12-24T06:02:37;8.10;;;1.93;;
31906;SDS011;18455;50.858;13.662;2022-12-24T06:07:38;11.20;;;2.30;;
31906;SDS011;18455;50.858;13.662;2022-12-24T06:12:38;8.67;;;1.80;;
31906;SDS011;18455;50.858;13.662;2022-12-24T06:17:38;11.23;;;2.40;;
31906;SDS011;18455;50.858;13.662;2022-12-24T06:22:41;6.70;;;2.37;;
31906;SDS011;18455;50.858;13.662;2022-12-24T06:27:41;12.07;;;2.23;;
31906;SDS011;18455;50.858;13.662;2022-12-24T06:32:42;8.10;;;1.73;;
31906;SDS011;18455;50.858;13.662;2022-12-24T06:37:42;8.77;;;1.67;;
31906;SDS011;18455;50.858;13.662;2022-12-24T06:42:42;10.77;;;2.10;;
31906;SDS011;18455;50.858;13.662;2022-12-24T06:47:43;10.43;;;2.20;;
31906;SDS011;18455;50.858;13.662;2022-12-24T06:52:43;6.00;;;1.60;;
31906;SDS011;18455;50.858;13.662;2022-12-24T06:57:43;5.50;;;1.90;;
31906;SDS011;18455;50.858;13.662;2022-12-24T07:02:43;11.30;;;2.50;;
31906;SDS011;18455;50.858;13.662;2022-12-24T07:07:44;10.03;;;2.47;;
31906;SDS011;18455;50.858;13.662;2022-12-24T07:12:44;8.33;;;2.10;;
31906;SDS011;18455;50.858;13.662;2022-12-24T07:17:44;12.03;;;2.00;;
31906;SDS011;18455;50.858;13.662;2022-12-24T07:22:44;8.27;;;2.00;;
31906;SDS011;18455;50.858;13.662;2022-12-24T07:27:44;7.33;;;2.50;;
31906;SDS011;18455;50.858;13.662;2022-12-24T07:32:44;5.20;;;2.17;;
31906;SDS011;18455;50.858;13.662;2022-12-24T07:37:45;8.77;;;2.27;;
31906;SDS011;18455;50.858;13.662;2022-12-24T07:42:45;13.17;;;2.13;;
31906;SDS011;18455;50.858;13.662;2022-12-24T07:47:45;8.93;;;2.27;;
31906;SDS011;18455;50.858;13.662;2022-12-24T07:52:45;8.93;;;2.17;;
31906;SDS011;18455;50.858;13.662;2022-12-24T07:57:45;5.87;;;1.50;;
31906;SDS011;18455;50.858;13.662;2022-12-24T08:02:45;6.13;;;1.77;;
31906;SDS011;18455;50.858;13.662;2022-12-24T08:07:46;6.23;;;1.70;;
31906;SDS011;18455;50.858;13.662;2022-12-24T08:12:46;10.13;;;1.80;;
31906;SDS011;18455;50.858;13.662;2022-12-24T08:17:47;9.97;;;1.70;;
31906;SDS011;18455;50.858;13.662;2022-12-24T08:22:47;8.00;;;2.10;;
31906;SDS011;18455;50.858;13.662;2022-12-24T08:27:47;9.00;;;2.10;;
31906;SDS011;18455;50.858;13.662;2022-12-24T08:32:47;14.67;;;2.50;;
31906;SDS011;18455;50.858;13.662;2022-12-24T08:37:48;9.60;;;2.37;;
31906;SDS011;18455;50.858;13.662;2022-12-24T08:42:48;6.10;;;2.00;;
31906;SDS011;18455;50.858;13.662;2022-12-24T08:47:48;6.63;;;1.77;;
31906;SDS011;18455;50.858;13.662;2022-12-24T08:52:48;13.50;;;2.67;;
31906;SDS011;18455;50.858;13.662;2022-12-24T08:57:48;10.47;;;2.00;;
31906;SDS011;18455;50.858;13.662;2022-12-24T09:02:49;11.20;;;2.30;;
31906;SDS011;18455;50.858;13.662;2022-12-24T09:07:49;8.27;;;1.83;;
31906;SDS011;18455;50.858;13.662;2022-12-24T09:12:49;16.50;;;2.13;;
31906;SDS011;18455;50.858;13.662;2022-12-24T09:17:50;9.60;;;2.17;;
31906;SDS011;18455;50.858;13.662;2022-12-24T09:22:50;13.50;;;2.50;;
31906;SDS011;18455;50.858;13.662;2022-12-24T09:27:50;13.20;;;2.67;;
31906;SDS011;18455;50.858;13.662;2022-12-24T09:32:50;7.60;;;2.13;;
31906;SDS011;18455;50.858;13.662;2022-12-24T09:37:51;14.97;;;2.57;;
31906;SDS011;18455;50.858;13.662;2022-12-24T09:43:02;12.60;;;2.27;;
31906;SDS011;18455;50.858;13.662;2022-12-24T09:48:10;13.33;;;2.67;;
31906;SDS011;18455;50.858;13.662;2022-12-24T09:58:36;13.70;;;2.50;;
31906;SDS011;18455;50.858;13.662;2022-12-24T10:03:38;9.60;;;2.60;;
31906;SDS011;18455;50.858;13.662;2022-12-24T10:14:01;13.13;;;2.90;;
31906;SDS011;18455;50.858;13.662;2022-12-24T10:19:13;16.03;;;2.70;;
31906;SDS011;18455;50.858;13.662;2022-12-24T10:24:22;13.03;;;2.33;;
31906;SDS011;18455;50.858;13.662;2022-12-24T10:29:25;11.23;;;2.30;;
31906;SDS011;18455;50.858;13.662;2022-12-24T10:34:27;13.10;;;3.27;;
31906;SDS011;18455;50.858;13.662;2022-12-24T10:39:29;10.33;;;2.33;;
31906;SDS011;18455;50.858;13.662;2022-12-24T10:44:30;10.67;;;2.23;;
31906;SDS011;18455;50.858;13.662;2022-12-24T10:49:53;6.47;;;2.00;;
31906;SDS011;18455;50.858;13.662;2022-12-24T11:00:05;12.80;;;4.07;;
31906;SDS011;18455;50.858;13.662;2022-12-24T11:05:07;8.77;;;2.17;;
31906;SDS011;18455;50.858;13.662;2022-12-24T11:10:25;11.13;;;2.63;;
31906;SDS011;18455;50.858;13.662;2022-12-24T11:15:28;17.47;;;5.60;;
31906;SDS011;18455;50.858;13.662;2022-12-24T11:20:29;12.23;;;3.20;;
31906;SDS011;18455;50.858;13.662;2022-12-24T11:25:31;10.23;;;2.33;;
31906;SDS011;18455;50.858;13.662;2022-12-24T11:30:32;2.70;;;1.43;;
31906;SDS011;18455;50.858;13.662;2022-12-24T11:35:33;9.67;;;2.00;;
31906;SDS011;18455;50.858;13.662;2022-12-24T11:40:41;12.13;;;1.90;;
31906;SDS011;18455;50.858;13.662;2022-12-24T11:45:52;5.93;;;1.43;;
31906;SDS011;18455;50.858;13.662;2022-12-24T11:50:57;10.13;;;2.40;;
31906;SDS011;18455;50.858;13.662;2022-12-24T11:55:58;7.63;;;1.83;;
31906;SDS011;18455;50.858;13.662;2022-12-24T12:01:11;3.90;;;1.50;;
31906;SDS011;18455;50.858;13.662;2022-12-24T12:06:24;5.33;;;2.10;;
31906;SDS011;18455;50.858;13.662;2022-12-24T12:11:25;7.73;;;2.00;;
31906;SDS011;18455;50.858;13.662;2022-12-24T12:16:28;8.83;;;2.50;;
31906;SDS011;18455;50.858;13.662;2022-12-24T12:21:49;7.43;;;3.17;;
31906;SDS011;18455;50.858;13.662;2022-12-24T12:26:56;8.40;;;2.73;;
31906;SDS011;18455;50.858;13.662;2022-12-24T12:32:06;6.10;;;1.70;;
31906;SDS011;18455;50.858;13.662;2022-12-24T12:37:42;14.23;;;8.33;;
31906;SDS011;18455;50.858;13.662;2022-12-24T12:42:36;5.40;;;1.73;;
31906;SDS011;18455;50.858;13.662;2022-12-24T12:47:56;6.20;;;2.30;;
31906;SDS011;18455;50.858;13.662;2022-12-24T12:53:04;10.00;;;3.33;;
31906;SDS011;18455;50.858;13.662;2022-12-24T12:58:09;3.13;;;1.67;;
31906;SDS011;18455;50.858;13.662;2022-12-24T13:13:51;7.43;;;1.80;;
31906;SDS011;18455;50.858;13.662;2022-12-24T13:24:05;8.97;;;2.27;;
31906;SDS011;18455;50.858;13.662;2022-12-24T13:29:28;8.70;;;1.90;;
31906;SDS011;18455;50.858;13.662;2022-12-24T13:34:32;5.03;;;2.13;;
31906;SDS011;18455;50.858;13.662;2022-12-24T13:45:25;3.07;;;1.50;;
31906;SDS011;18455;50.858;13.662;2022-12-24T13:50:34;7.50;;;2.07;;
31906;SDS011;18455;50.858;13.662;2022-12-24T13:55:35;7.13;;;2.60;;
31906;SDS011;18455;50.858;13.662;2022-12-24T14:00:36;7.10;;;2.30;;
31906;SDS011;18455;50.858;13.662;2022-12-24T14:05:39;5.47;;;2.20;;
31906;SDS011;18455;50.858;13.662;2022-12-24T14:10:55;10.33;;;2.80;;
31906;SDS011;18455;50.858;13.662;2022-12-24T14:15:59;5.13;;;2.90;;
31906;SDS011;18455;50.858;13.662;2022-12-24T14:21:00;4.77;;;2.50;;
31906;SDS011;18455;50.858;13.662;2022-12-24T14:26:01;5.50;;;2.43;;
31906;SDS011;18455;50.858;13.662;2022-12-24T14:31:03;15.63;;;4.53;;
31906;SDS011;18455;50.858;13.662;2022-12-24T14:36:04;7.47;;;3.20;;
31906;SDS011;18455;50.858;13.662;2022-12-24T14:46:20;13.53;;;5.73;;
31906;SDS011;18455;50.858;13.662;2022-12-24T14:56:21;7.53;;;2.53;;
31906;SDS011;18455;50.858;13.662;2022-12-24T15:01:23;9.23;;;1.70;;
31906;SDS011;18455;50.858;13.662;2022-12-24T15:06:23;9.83;;;2.67;;
31906;SDS011;18455;50.858;13.662;2022-12-24T15:11:24;8.77;;;1.70;;
31906;SDS011;18455;50.858;13.662;2022-12-24T15:16:26;10.07;;;2.50;;
31906;SDS011;18455;50.858;13.662;2022-12-24T15:21:31;7.83;;;2.67;;
31906;SDS011;18455;50.858;13.662;2022-12-24T15:26:33;9.87;;;3.03;;
31906;SDS011;18455;50.858;13.662;2022-12-24T15:31:35;7.50;;;2.47;;
31906;SDS011;18455;50.858;13.662;2022-12-24T15:36:35;6.47;;;2.70;;
31906;SDS011;18455;50.858;13.662;2022-12-24T15:41:37;8.23;;;3.80;;
31906;SDS011;18455;50.858;13.662;2022-12-24T15:46:59;6.67;;;3.10;;
31906;SDS011;18455;50.858;13.662;2022-12-24T15:52:13;8.57;;;2.50;;
31906;SDS011;18455;50.858;13.662;2022-12-24T15:57:20;13.27;;;4.20;;
31906;SDS011;18455;50.858;13.662;2022-12-24T16:07:26;13.23;;;5.30;;
31906;SDS011;18455;50.858;13.662;2022-12-24T16:12:46;34.80;;;15.40;;
31906;SDS011;18455;50.858;13.662;2022-12-24T16:17:47;13.63;;;6.37;;
31906;SDS011;18455;50.858;13.662;2022-12-24T16:22:48;11.10;;;3.87;;
31906;SDS011;18455;50.858;13.662;2022-12-24T16:27:49;14.97;;;4.63;;
31906;SDS011;18455;50.858;13.662;2022-12-24T16:32:49;12.83;;;4.77;;
31906;SDS011;18455;50.858;13.662;2022-12-24T16:37:50;8.97;;;4.97;;
31906;SDS011;18455;50.858;13.662;2022-12-24T16:42:50;24.17;;;9.77;;
31906;SDS011;18455;50.858;13.662;2022-12-24T16:48:10;11.47;;;3.90;;
31906;SDS011;18455;50.858;13.662;2022-12-24T16:53:13;17.20;;;5.37;;
31906;SDS011;18455;50.858;13.662;2022-12-24T16:58:14;9.93;;;4.37;;
31906;SDS011;18455;50.858;13.662;2022-12-24T17:03:15;11.97;;;3.77;;
31906;SDS011;18455;50.858;13.662;2022-12-24T17:08:15;18.03;;;8.23;;
31906;SDS011;18455;50.858;13.662;2022-12-24T17:13:15;8.60;;;2.47;;
31906;SDS011;18455;50.858;13.662;2022-12-24T17:18:15;8.73;;;2.30;;
31906;SDS011;18455;50.858;13.662;2022-12-24T17:23:16;8.87;;;2.60;;
31906;SDS011;18455;50.858;13.662;2022-12-24T17:28:16;13.83;;;3.13;;
31906;SDS011;18455;50.858;13.662;2022-12-24T17:33:16;10.30;;;2.83;;
31906;SDS011;18455;50.858;13.662;2022-12-24T17:38:17;14.83;;;3.90;;
31906;SDS011;18455;50.858;13.662;2022-12-24T17:43:17;11.00;;;4.13;;
31906;SDS011;18455;50.858;13.662;2022-12-24T17:48:17;22.40;;;7.20;;
31906;SDS011;18455;50.858;13.662;2022-12-24T17:53:17;33.07;;;14.70;;
31906;SDS011;18455;50.858;13.662;2022-12-24T17:58:17;25.40;;;10.17;;
31906;SDS011;18455;50.858;13.662;2022-12-24T18:03:18;23.93;;;10.43;;
31906;SDS011;18455;50.858;13.662;2022-12-24T18:08:18;26.83;;;12.00;;
31906;SDS011;18455;50.858;13.662;2022-12-24T18:13:18;12.40;;;4.53;;
31906;SDS011;18455;50.858;13.662;2022-12-24T18:18:18;9.60;;;3.93;;
31906;SDS011;18455;50.858;13.662;2022-12-24T18:23:18;9.20;;;3.90;;
31906;SDS011;18455;50.858;13.662;2022-12-24T18:28:19;11.63;;;3.47;;
31906;SDS011;18455;50.858;13.662;2022-12-24T18:33:19;14.10;;;4.40;;
31906;SDS011;18455;50.858;13.662;2022-12-24T18:38:19;9.97;;;4.13;;
31906;SDS011;18455;50.858;13.662;2022-12-24T18:43:19;13.97;;;4.20;;
31906;SDS011;18455;50.858;13.662;2022-12-24T18:48:19;7.15;;;3.35;;
31906;SDS011;18455;50.858;13.662;2022-12-24T18:53:20;17.97;;;7.43;;
31906;SDS011;18455;50.858;13.662;2022-12-24T18:58:20;29.13;;;11.37;;
31906;SDS011;18455;50.858;13.662;2022-12-24T19:03:20;17.53;;;5.87;;
31906;SDS011;18455;50.858;13.662;2022-12-24T19:08:20;9.13;;;3.00;;
31906;SDS011;18455;50.858;13.662;2022-12-24T19:13:20;12.27;;;3.90;;
31906;SDS011;18455;50.858;13.662;2022-12-24T19:18:20;13.60;;;4.53;;
31906;SDS011;18455;50.858;13.662;2022-12-24T19:23:21;17.67;;;4.40;;
31906;SDS011;18455;50.858;13.662;2022-12-24T19:28:21;13.43;;;6.43;;
31906;SDS011;18455;50.858;13.662;2022-12-24T19:33:21;9.90;;;2.90;;
31906;SDS011;18455;50.858;13.662;2022-12-24T19:38:21;7.00;;;2.87;;
31906;SDS011;18455;50.858;13.662;2022-12-24T19:43:21;9.67;;;3.20;;
31906;SDS011;18455;50.858;13.662;2022-12-24T19:48:21;9.93;;;2.70;;
31906;SDS011;18455;50.858;13.662;2022-12-24T19:53:22;8.43;;;2.87;;
31906;SDS011;18455;50.858;13.662;2022-12-24T19:58:22;10.27;;;3.03;;
31906;SDS011;18455;50.858;13.662;2022-12-24T20:03:22;12.33;;;3.37;;
31906;SDS011;18455;50.858;13.662;2022-12-24T20:08:22;9.17;;;2.60;;
31906;SDS011;18455;50.858;13.662;2022-12-24T20:13:22;7.53;;;3.07;;
31906;SDS011;18455;50.858;13.662;2022-12-24T20:18:22;8.77;;;2.67;;
31906;SDS011;18455;50.858;13.662;2022-12-24T20:23:23;10.27;;;2.77;;
31906;SDS011;18455;50.858;13.662;2022-12-24T20:28:23;7.43;;;2.63;;
31906;SDS011;18455;50.858;13.662;2022-12-24T20:33:23;10.40;;;2.53;;
31906;SDS011;18455;50.858;13.662;2022-12-24T20:38:24;9.23;;;3.03;;
31906;SDS011;18455;50.858;13.662;2022-12-24T20:43:24;11.13;;;2.67;;
31906;SDS011;18455;50.858;13.662;2022-12-24T20:48:25;10.13;;;2.30;;
31906;SDS011;18455;50.858;13.662;2022-12-24T20:53:25;9.27;;;2.13;;
31906;SDS011;18455;50.858;13.662;2022-12-24T20:58:25;8.23;;;2.50;;
31906;SDS011;18455;50.858;13.662;2022-12-24T21:03:25;10.30;;;2.47;;
31906;SDS011;18455;50.858;13.662;2022-12-24T21:08:26;14.87;;;3.10;;
31906;SDS011;18455;50.858;13.662;2022-12-24T21:13:26;8.27;;;2.70;;
31906;SDS011;18455;50.858;13.662;2022-12-24T21:18:26;8.70;;;3.30;;
31906;SDS011;18455;50.858;13.662;2022-12-24T21:23:26;12.73;;;3.20;;
31906;SDS011;18455;50.858;13.662;2022-12-24T21:28:27;11.33;;;2.93;;
31906;SDS011;18455;50.858;13.662;2022-12-24T21:33:27;10.47;;;2.97;;
31906;SDS011;18455;50.858;13.662;2022-12-24T21:38:27;9.90;;;3.70;;
31906;SDS011;18455;50.858;13.662;2022-12-24T21:43:31;15.40;;;4.43;;
31906;SDS011;18455;50.858;13.662;2022-12-24T21:48:32;9.00;;;3.10;;
31906;SDS011;18455;50.858;13.662;2022-12-24T21:53:50;13.43;;;3.10;;
31906;SDS011;18455;50.858;13.662;2022-12-24T21:59:09;8.30;;;2.97;;
31906;SDS011;18455;50.858;13.662;2022-12-24T22:04:09;13.27;;;3.40;;
31906;SDS011;18455;50.858;13.662;2022-12-24T22:09:09;13.07;;;3.27;;
31906;SDS011;18455;50.858;13.662;2022-12-24T22:14:28;9.60;;;2.97;;
31906;SDS011;18455;50.858;13.662;2022-12-24T22:19:28;10.70;;;3.30;;
31906;SDS011;18455;50.858;13.662;2022-12-24T22:24:29;12.30;;;3.43;;
31906;SDS011;18455;50.858;13.662;2022-12-24T22:29:29;11.47;;;3.10;;
31906;SDS011;18455;50.858;13.662;2022-12-24T22:34:29;15.73;;;3.13;;
31906;SDS011;18455;50.858;13.662;2022-12-24T22:39:30;10.63;;;3.60;;
31906;SDS011;18455;50.858;13.662;2022-12-24T22:44:30;11.00;;;3.37;;
31906;SDS011;18455;50.858;13.662;2022-12-24T22:49:31;23.73;;;3.73;;
31906;SDS011;18455;50.858;13.662;2022-12-24T22:54:31;9.63;;;3.30;;
31906;SDS011;18455;50.858;13.662;2022-12-24T22:59:32;11.23;;;3.80;;
31906;SDS011;18455;50.858;13.662;2022-12-24T23:04:36;12.57;;;3.67;;
31906;SDS011;18455;50.858;13.662;2022-12-24T23:09:36;17.13;;;3.37;;
31906;SDS011;18455;50.858;13.662;2022-12-24T23:14:36;8.10;;;2.70;;
31906;SDS011;18455;50.858;13.662;2022-12-24T23:19:55;11.17;;;2.80;;
31906;SDS011;18455;50.858;13.662;2022-12-24T23:24:55;17.87;;;5.10;;
31906;SDS011;18455;50.858;13.662;2022-12-24T23:29:55;15.63;;;3.30;;
31906;SDS011;18455;50.858;13.662;2022-12-24T23:34:55;11.07;;;3.40;;
31906;SDS011;18455;50.858;13.662;2022-12-24T23:39:56;13.03;;;3.47;;
31906;SDS011;18455;50.858;13.662;2022-12-24T23:44:56;12.97;;;3.23;;
31906;SDS011;18455;50.858;13.662;2022-12-24T23:49:56;13.17;;;3.23;;
31906;SDS011;18455;50.858;13.662;2022-12-24T23:54:56;15.67;;;4.23;;
31906;SDS011;18455;50.858;13.662;2022-12-24T23:59:56;12.17;;;3.77;;
